ADDS METAR Data INFO
IDs: Format: Raw Decoded Include TAF

Data at: 0944 UTC 25 Jun 2018

KBGF 250935Z AUTO 00000KT 10SM CLR 22/21 A3002 RMK A01
KBGF 250915Z AUTO 11005KT 10SM CLR 22/20 A3001 RMK A01
KBGF 250855Z AUTO 09004KT 10SM CLR 22/21 A3002 RMK A01
KBGF 250835Z AUTO 09007KT 10SM FEW044 22/21 A3002 RMK A01
KBGF 250815Z AUTO 12004KT 10SM FEW046 22/21 A3002 RMK A01
KBGF 250755Z AUTO 10004KT 10SM CLR 22/21 A3002 RMK A01
KBGF 250735Z AUTO 13005KT 10SM CLR 23/21 A3003 RMK A01
KBGF 250715Z AUTO 14005KT 10SM CLR 23/21 A3003 RMK A01
KBGF 250655Z AUTO 13004KT 10SM CLR 23/21 A3004 RMK A01
KBGF 250635Z AUTO 17004KT 10SM CLR 23/21 A3003 RMK A01
KBGF 250615Z AUTO 13003KT 10SM CLR 23/21 A3003 RMK A01
KBGF 250555Z AUTO 00000KT 10SM CLR 23/21 A3002 RMK A01
KBGF 250535Z AUTO 17006KT 10SM CLR 22/21 A3002 RMK A01
KBGF 250515Z AUTO 13004KT 10SM CLR 22/21 A3003 RMK A01
KBGF 250455Z AUTO 11004KT 10SM CLR 22/21 A3004 RMK A01
KBGF 250435Z AUTO 11003KT 10SM CLR 22/21 A3004 RMK A01
KBGF 250415Z AUTO 14004KT 10SM CLR 22/21 A3002 RMK A01
KBGF 250355Z AUTO 11003KT 10SM CLR 22/21 A3003 RMK A01
KBGF 250335Z AUTO 12003KT 10SM CLR 23/21 A3003 RMK A01
KBGF 250315Z AUTO 15004KT 10SM CLR 24/22 A3004 RMK A01
KBGF 250255Z AUTO 00000KT 10SM FEW038 FEW045 24/21 A3004 RMK A01
KBGF 250235Z AUTO 00000KT 10SM SCT039 SCT046 SCT050 24/21 A3004 RMK A01
KBGF 250215Z AUTO 17004KT 10SM SCT040 BKN049 BKN065 24/22 A3005 RMK A01
KBGF 250155Z AUTO 11006KT 10SM FEW026 SCT048 BKN060 23/22 A3004 RMK A01
KBGF 250135Z AUTO 04010KT 10SM FEW017 BKN024 OVC065 24/21 A3003 RMK A01
KBGF 250115Z AUTO 33005G12KT 10SM FEW016 SCT039 BKN055 25/22 A3003 RMK A01
KBGF 250055Z AUTO 11004KT 10SM SCT041 BKN060 OVC085 26/23 A3001 RMK A01
KBGF 250035Z AUTO 05003KT 10SM SCT039 BKN050 OVC110 26/23 A3001 RMK A01
KBGF 250015Z AUTO 08004KT 10SM SCT041 BKN048 BKN055 26/23 A3000 RMK A01
KBGF 242355Z AUTO 05004KT 10SM SCT041 SCT055 27/23 A3000 RMK A01
KBGF 242335Z AUTO 10003KT 10SM CLR 28/22 A3000 RMK A01
KBGF 242315Z AUTO 14003KT 10SM CLR 27/22 A3000 RMK A01
KBGF 242255Z AUTO 15006KT 10SM CLR 27/22 A3000 RMK A01
KBGF 242235Z AUTO 16004KT 10SM CLR 27/21 A3000 RMK A01
KBGF 242215Z AUTO 16004KT 10SM CLR 26/21 A3000 RMK A01
KBGF 242155Z AUTO 00000KT 10SM CLR 26/21 A3000 RMK A01
KBGF 242135Z AUTO 00000KT 10SM CLR 25/21 A3001 RMK A01
KBGF 242115Z AUTO 00000KT 10SM CLR 24/20 A3001 RMK A01
KBGF 242055Z AUTO 03004G10KT 10SM FEW036 FEW042 FEW065 24/20 A3003 RMK A01
KBGF 242035Z AUTO 05012G18KT 10SM FEW036 FEW045 SCT065 24/21 A3004 RMK A01
KBGF 242015Z AUTO 01014KT 10SM FEW036 SCT045 BKN085 27/22 A3003 RMK A01
KBGF 241955Z AUTO 00000G10KT 10SM CLR 29/23 A3000 RMK A01
KBGF 241935Z AUTO 26005KT 10SM FEW035 FEW055 30/23 A2999 RMK A01
KBGF 241915Z AUTO VRB06G13KT 10SM SCT034 SCT070 30/23 A2999 RMK A01
KBGF 241855Z AUTO 26008KT 10SM SCT032 SCT039 BKN070 31/23 A3000 RMK A01
KBGF 241835Z AUTO 26007G14KT 10SM CLR 31/23 A3000 RMK A01
KBGF 241815Z AUTO 23008G14KT 10SM CLR 30/23 A3000 RMK A01
KBGF 241755Z AUTO VRB06KT 10SM FEW027 30/23 A3000 RMK A01
KBGF 241735Z AUTO 23011KT 10SM SCT026 SCT033 30/24 A3002 RMK A01
KBGF 241715Z AUTO 24010KT 10SM FEW024 SCT065 SCT095 30/24 A3001 RMK A01
KBGF 241655Z AUTO 24008KT 10SM FEW021 FEW065 SCT090 28/24 A3002 RMK A01
KBGF 241635Z AUTO 26007KT 10SM FEW022 SCT027 SCT037 28/24 A3003 RMK A01
KBGF 241615Z AUTO 24010KT 10SM BKN022 BKN027 OVC080 28/24 A3004 RMK A01
KBGF 241555Z AUTO 27008KT 10SM BKN023 BKN032 OVC080 28/23 A3003 RMK A01
KBGF 241535Z AUTO 25007G13KT 10SM BKN022 OVC027 28/23 A3003 RMK A01
KBGF 241515Z AUTO 27007KT 240V310 10SM BKN023 OVC037 28/23 A3003 RMK A01
KBGF 241455Z AUTO 26010KT 10SM BKN023 BKN033 OVC040 27/23 A3002 RMK A01
KBGF 241435Z AUTO 25008KT 10SM SCT023 SCT030 BKN039 28/23 A3002 RMK A01
KBGF 241415Z AUTO 26006KT 10SM FEW023 28/23 A3002 RMK A01
KBGF 241355Z AUTO 25008G14KT 10SM FEW045 FEW060 27/23 A3002 RMK A01
KBGF 241335Z AUTO 25011KT 10SM FEW042 FEW060 27/22 A3001 RMK A01
KBGF 241315Z AUTO 25006G14KT 10SM CLR 27/22 A3001 RMK A01
KBGF 241255Z AUTO 25004KT 10SM CLR 26/22 A3000 RMK A01
KBGF 241235Z AUTO 21004KT 10SM FEW050 FEW065 25/23 A3000 RMK A01
KBGF 241215Z AUTO VRB03KT 10SM FEW043 SCT050 SCT065 24/23 A3000 RMK A01
KBGF 241155Z AUTO 00000KT 10SM SCT042 BKN050 BKN065 23/22 A3000 RMK A01
KBGF 241135Z AUTO 00000KT 9SM BKN042 OVC055 23/22 A3000 RMK A01
KBGF 241115Z AUTO 00000KT 9SM BKN055 BKN070 22/22 A2999 RMK A01
KBGF 241055Z AUTO 11003KT 8SM FEW034 FEW050 BKN055 22/22 A2997 RMK A01
KBGF 241035Z AUTO 00000KT 3SM BR BKN035 BKN044 22/22 A2997 RMK A01
KBGF 241015Z AUTO 00000KT 3/4SM BR BKN018 BKN033 OVC040 22/22 A2996 RMK A01
KBGF 240955Z AUTO 00000KT 5SM BR BKN020 BKN028 OVC038 22/22 A2996 RMK A01
KBGF 240935Z AUTO 00000KT 8SM BKN021 BKN027 OVC040 23/22 A2996 RMK A01
KBGF 240915Z AUTO 00000KT 10SM BKN022 OVC035 23/22 A2995 RMK A01
KBGF 240855Z AUTO 00000KT 10SM BKN023 BKN031 OVC036 23/22 A2995 RMK A01
KBGF 240835Z AUTO 03004KT 10SM OVC023 23/22 A2995 RMK A01
KBGF 240815Z AUTO 00000KT 10SM BKN025 BKN032 OVC037 24/22 A2994 RMK A01
KBGF 240755Z AUTO 19004KT 10SM BKN027 BKN037 OVC070 24/22 A2993 RMK A01 P0003
KBGF 240735Z AUTO 00000KT 10SM BKN032 BKN043 OVC070 24/23 A2993 RMK A01
KBGF 240715Z AUTO 15003KT 4SM BR SCT030 BKN037 OVC060 24/22 A2993 RMK A01
KBGF 240655Z AUTO 00000KT 10SM SCT037 BKN043 BKN050 24/22 A2993 RMK A01
KBGF 240635Z AUTO 20004KT 10SM SCT036 BKN044 BKN050 25/22 A2994 RMK A01
KBGF 240615Z AUTO 21005KT 10SM BKN033 BKN038 OVC075 25/23 A2994 RMK A01
KBGF 240555Z AUTO 25005KT 10SM OVC033 25/23 A2995 RMK A01
KBGF 240535Z AUTO 00000KT 10SM BKN031 BKN037 OVC060 25/23 A2994 RMK A01
KBGF 240515Z AUTO 19005KT 10SM BKN034 BKN046 OVC055 25/23 A2993 RMK A01
KBGF 240455Z AUTO 18005KT 10SM SCT038 BKN046 BKN085 25/23 A2992 RMK A01
KBGF 240435Z AUTO 18004KT 10SM BKN037 BKN047 BKN055 25/23 A2993 RMK A01
KBGF 240415Z AUTO 18005KT 10SM BKN039 OVC055 25/22 A2993 RMK A01
KBGF 240355Z AUTO 18004KT 10SM FEW019 BKN040 BKN055 25/22 A2993 RMK A01
KBGF 240335Z AUTO 17004KT 10SM BKN020 BKN033 BKN040 24/22 A2993 RMK A01
KBGF 240315Z AUTO VRB04KT 10SM BKN019 BKN033 24/22 A2993 RMK A01
KBGF 240255Z AUTO 00000KT 10SM OVC018 25/22 A2994 RMK A01
KBGF 240235Z AUTO 00000KT 10SM OVC018 25/22 A2992 RMK A01
KBGF 240215Z AUTO 00000KT 10SM OVC019 24/22 A2992 RMK A01
KBGF 240155Z AUTO 00000KT 10SM OVC020 24/22 A2992 RMK A01
KBGF 240135Z AUTO 15003KT 10SM OVC020 24/22 A2991 RMK A01
KBGF 240115Z AUTO 19005KT 10SM BKN021 BKN025 BKN031 24/21 A2990 RMK A01
KBGF 240055Z AUTO 17005KT 10SM SCT024 24/21 A2990 RMK A01
KBGF 240035Z AUTO 17006KT 10SM BKN021 25/22 A2988 RMK A01
KBGF 240015Z AUTO 19005KT 10SM OVC020 25/22 A2988 RMK A01
KBGF 232355Z AUTO 22007KT 10SM OVC019 25/22 A2988 RMK A01
KBGF 232335Z AUTO 22006KT 10SM OVC020 25/21 A2988 RMK A01
KBGF 232315Z AUTO VRB04KT 10SM SCT022 SCT031 25/21 A2989 RMK A01
KBGF 232255Z AUTO VRB06KT 10SM CLR 26/21 A2989 RMK A01
KBGF 232235Z AUTO 20006KT 10SM CLR 25/21 A2989 RMK A01
KBGF 232215Z AUTO 00000KT 10SM CLR 25/21 A2990 RMK A01
KBGF 232155Z AUTO 21003KT 10SM CLR 25/21 A2990 RMK A01